Time;durP1;ratioP1;P1;durP2;ratioP2;P2;SDS_P1;SDS_P2;PMS_P1;PMS_P2;Temp;Humidity;BMP_temperature;BMP_pressure;BME280_temperature;BME280_humidity;BME280_pressure;Samples;Min_cycle;Max_cycle;Signal;HPM_P1;HPM_P2
2021/04/17 00:02:16;;;;;;;4.65;3.30;;;6.40;86.40;;;;;;4957412;29;20028;-87
2021/04/17 00:04:43;;;;;;;5.18;3.78;;;6.40;86.50;;;;;;4958922;28;20034;-87
2021/04/17 00:07:14;;;;;;;4.47;3.38;;;6.50;86.50;;;;;;4959800;28;20058;-86
2021/04/17 00:09:40;;;;;;;3.88;2.85;;;6.40;86.40;;;;;;4959544;28;20027;-86
2021/04/17 00:12:15;;;;;;;5.40;3.72;;;6.40;86.40;;;;;;4976435;28;20458;-86
2021/04/17 00:14:42;;;;;;;4.97;3.38;;;6.50;86.50;;;;;;4976031;28;20478;-85
2021/04/17 00:17:08;;;;;;;4.90;3.60;;;6.50;86.40;;;;;;4959441;28;20426;-86
2021/04/17 00:19:35;;;;;;;5.13;3.65;;;6.50;86.50;;;;;;4959276;28;20478;-85
2021/04/17 00:22:01;;;;;;;5.15;3.70;;;6.50;86.60;;;;;;4960284;28;20470;-86
2021/04/17 00:24:27;;;;;;;5.03;3.30;;;6.50;86.60;;;;;;4959138;28;20037;-86
2021/04/17 00:26:52;;;;;;;5.70;4.38;;;6.50;86.50;;;;;;4958473;28;20047;-86
2021/04/17 00:29:18;;;;;;;7.97;5.63;;;6.50;86.50;;;;;;4975035;28;20058;-87
2021/04/17 00:31:44;;;;;;;7.93;6.50;;;6.50;86.50;;;;;;4976196;28;20035;-86
2021/04/17 00:34:09;;;;;;;8.85;6.60;;;6.50;86.60;;;;;;4959976;28;20466;-85
2021/04/17 00:36:36;;;;;;;8.60;6.55;;;6.50;86.40;;;;;;4958937;28;20059;-86
2021/04/17 00:39:04;;;;;;;11.25;8.60;;;6.50;86.50;;;;;;4955278;29;20027;-86
2021/04/17 00:41:30;;;;;;;12.75;9.85;;;6.50;86.60;;;;;;4939369;29;20031;-87
2021/04/17 00:43:55;;;;;;;14.55;10.23;;;6.50;86.60;;;;;;4939479;29;20521;-86
2021/04/17 00:46:21;;;;;;;14.82;10.77;;;6.50;86.60;;;;;;4939115;29;20368;-86
2021/04/17 00:48:47;;;;;;;13.77;10.88;;;6.50;86.70;;;;;;4939271;29;20027;-85
2021/04/17 00:51:14;;;;;;;12.65;9.48;;;6.50;86.70;;;;;;4939543;29;20391;-86
2021/04/17 00:53:40;;;;;;;13.52;10.20;;;6.50;86.70;;;;;;4939293;29;20149;-85
2021/04/17 00:56:07;;;;;;;13.25;9.55;;;6.50;86.80;;;;;;4956034;29;20027;-86
2021/04/17 00:58:34;;;;;;;16.00;8.70;;;6.50;86.60;;;;;;4938235;29;20031;-86
2021/04/17 01:01:01;;;;;;;13.60;9.50;;;6.50;86.70;;;;;;4956305;29;20031;-86
2021/04/17 01:03:47;;;;;;;10.82;7.88;;;6.50;86.70;;;;;;4941556;28;20035;-85
2021/04/17 01:06:20;;;;;;;9.95;7.00;;;6.50;86.80;;;;;;4958230;28;20027;-85
2021/04/17 01:09:11;;;;;;;11.65;7.13;;;6.50;86.70;;;;;;4958812;28;20383;-86
2021/04/17 01:11:55;;;;;;;8.68;6.10;;;6.50;86.70;;;;;;4958069;28;20035;-86
2021/04/17 01:14:22;;;;;;;8.68;6.88;;;6.50;86.80;;;;;;4958181;28;20031;-85
2021/04/17 01:16:49;;;;;;;9.73;5.78;;;6.50;86.90;;;;;;4958037;28;20364;-86
2021/04/17 01:19:52;;;;;;;8.18;6.38;;;6.50;86.90;;;;;;4975468;28;20050;-86
2021/04/17 01:22:24;;;;;;;6.80;4.93;;;6.50;86.80;;;;;;4945114;28;20043;-86
2021/04/17 01:25:04;;;;;;;7.72;5.00;;;6.50;86.90;;;;;;4957919;28;20034;-86
2021/04/17 01:27:30;;;;;;;6.00;4.50;;;6.60;87.00;;;;;;4957878;28;20042;-85
2021/04/17 01:29:56;;;;;;;6.75;4.70;;;6.60;86.90;;;;;;4974828;28;20027;-86
2021/04/17 01:32:23;;;;;;;4.72;3.65;;;6.60;86.90;;;;;;4957993;28;20038;-86
2021/04/17 01:34:50;;;;;;;5.63;3.75;;;6.60;86.90;;;;;;4975184;28;20099;-86
2021/04/17 01:37:16;;;;;;;5.63;4.10;;;6.60;87.00;;;;;;4957497;28;20035;-85
2021/04/17 01:39:42;;;;;;;5.22;4.00;;;6.60;86.90;;;;;;4957656;28;20074;-85
2021/04/17 01:42:11;;;;;;;6.75;3.70;;;6.60;86.90;;;;;;4974905;28;20027;-86
2021/04/17 01:44:43;;;;;;;5.40;3.80;;;6.60;86.90;;;;;;4975222;28;20023;-85
2021/04/17 01:47:12;;;;;;;4.80;3.38;;;6.60;87.00;;;;;;4973989;28;20023;-86
2021/04/17 01:49:41;;;;;;;5.68;4.10;;;6.60;87.10;;;;;;4957774;28;20027;-86
2021/04/17 01:52:11;;;;;;;6.32;3.72;;;6.60;87.10;;;;;;4957646;28;20038;-86
2021/04/17 01:54:43;;;;;;;6.22;3.78;;;6.60;87.10;;;;;;4975219;28;20488;-85
2021/04/17 01:57:12;;;;;;;5.25;3.80;;;6.60;87.10;;;;;;4974721;28;20030;-86
2021/04/17 01:59:40;;;;;;;6.35;3.90;;;6.60;87.10;;;;;;4957580;28;20121;-86
2021/04/17 02:02:06;;;;;;;5.93;3.78;;;6.60;87.10;;;;;;4954125;29;20074;-85
2021/04/17 02:04:33;;;;;;;4.57;3.72;;;6.60;87.20;;;;;;4955342;29;20031;-85
2021/04/17 02:06:59;;;;;;;7.60;4.38;;;6.60;87.20;;;;;;4938446;29;20360;-86
2021/04/17 02:09:25;;;;;;;4.80;3.80;;;6.60;87.10;;;;;;4939353;28;20031;-86
2021/04/17 02:11:50;;;;;;;5.93;3.42;;;6.60;87.20;;;;;;4957459;28;20027;-85
2021/04/17 02:14:17;;;;;;;5.68;3.70;;;6.60;87.30;;;;;;4957605;28;20576;-86
2021/04/17 02:17:11;;;;;;;6.47;4.05;;;6.60;87.30;;;;;;4957364;28;20138;-85
2021/04/17 02:20:03;;;;;;;7.38;4.25;;;6.70;87.40;;;;;;4956639;28;20031;-86
2021/04/17 02:22:29;;;;;;;7.13;4.50;;;6.70;87.30;;;;;;4957533;28;20474;-85
2021/04/17 02:24:56;;;;;;;9.63;4.80;;;6.70;87.30;;;;;;4974903;28;20031;-85
2021/04/17 02:27:22;;;;;;;8.38;6.07;;;6.70;87.30;;;;;;4974547;28;20085;-86
2021/04/17 02:29:56;;;;;;;11.48;5.97;;;6.70;87.30;;;;;;4957614;28;20482;-85
2021/04/17 02:32:22;;;;;;;13.50;6.05;;;6.70;87.30;;;;;;4974273;28;20078;-85
2021/04/17 02:34:48;;;;;;;15.73;6.38;;;6.70;87.50;;;;;;4957282;28;20035;-85
2021/04/17 02:37:14;;;;;;;10.55;6.82;;;6.70;87.50;;;;;;4959874;28;20035;-86
2021/04/17 02:39:41;;;;;;;15.43;6.32;;;6.70;87.50;;;;;;4977509;28;20439;-86
2021/04/17 02:42:07;;;;;;;13.70;7.75;;;6.70;87.50;;;;;;4960664;28;20121;-86
2021/04/17 02:44:33;;;;;;;14.45;6.82;;;6.70;87.60;;;;;;4960814;28;20031;-86
2021/04/17 02:46:59;;;;;;;13.13;6.82;;;6.70;87.60;;;;;;4977805;28;20046;-86
2021/04/17 02:49:24;;;;;;;15.75;7.93;;;6.70;87.70;;;;;;4977885;28;20027;-86
2021/04/17 02:51:50;;;;;;;14.93;7.03;;;6.70;87.80;;;;;;4957259;29;20058;-85
2021/04/17 02:54:16;;;;;;;11.90;6.90;;;6.70;87.70;;;;;;4941493;29;20035;-86
2021/04/17 02:56:42;;;;;;;9.15;5.97;;;6.70;87.90;;;;;;4958098;29;20036;-86
2021/04/17 02:59:07;;;;;;;11.00;6.53;;;6.70;88.00;;;;;;4958582;29;20124;-86
2021/04/17 03:01:33;;;;;;;11.20;5.97;;;6.70;88.00;;;;;;4941265;29;20038;-85
2021/04/17 03:03:59;;;;;;;9.13;5.97;;;6.70;87.90;;;;;;4941828;29;20034;-85
2021/04/17 03:06:25;;;;;;;12.93;8.02;;;6.70;88.10;;;;;;4941089;29;20034;-86
2021/04/17 03:08:50;;;;;;;14.27;6.65;;;6.70;88.10;;;;;;4959527;29;20031;-86
2021/04/17 03:11:16;;;;;;;10.63;6.50;;;6.70;88.10;;;;;;4942124;29;20039;-85
2021/04/17 03:13:42;;;;;;;10.85;6.55;;;6.70;88.10;;;;;;4958012;29;20110;-86
2021/04/17 03:16:07;;;;;;;12.05;6.82;;;6.70;88.10;;;;;;4940926;29;20023;-86
2021/04/17 03:18:33;;;;;;;12.93;8.10;;;6.70;88.20;;;;;;4957940;29;20027;-86
2021/04/17 03:20:59;;;;;;;11.98;6.72;;;6.70;88.40;;;;;;4941720;28;20028;-86
2021/04/17 03:23:25;;;;;;;11.05;6.85;;;6.70;88.50;;;;;;4959809;28;20389;-86
2021/04/17 03:25:51;;;;;;;12.30;7.97;;;6.70;88.70;;;;;;4960157;28;20047;-86
2021/04/17 03:28:17;;;;;;;11.63;7.72;;;6.70;88.80;;;;;;4960361;28;20093;-86
2021/04/17 03:30:42;;;;;;;12.32;7.03;;;6.70;88.80;;;;;;4976947;28;20034;-86
2021/04/17 03:33:08;;;;;;;13.05;7.60;;;6.70;88.90;;;;;;4977338;28;20027;-85
2021/04/17 03:35:34;;;;;;;10.18;6.63;;;6.70;89.10;;;;;;4959884;28;20055;-86
2021/04/17 03:38:00;;;;;;;12.52;8.05;;;6.70;89.30;;;;;;4959507;28;20386;-85
2021/04/17 03:40:26;;;;;;;13.73;7.07;;;6.70;89.30;;;;;;4959405;28;20482;-85
2021/04/17 03:42:52;;;;;;;12.77;7.38;;;6.70;89.60;;;;;;4956340;29;20027;-86
2021/04/17 03:45:18;;;;;;;10.25;6.28;;;6.70;89.60;;;;;;4956436;29;20551;-86
2021/04/17 03:47:44;;;;;;;11.18;6.47;;;6.70;89.70;;;;;;4939671;29;20079;-85
2021/04/17 03:50:11;;;;;;;8.73;5.18;;;6.70;90.10;;;;;;4940339;29;20039;-85
2021/04/17 03:52:37;;;;;;;8.77;5.53;;;6.70;90.00;;;;;;4952556;29;20034;-86
2021/04/17 03:55:05;;;;;;;6.72;4.95;;;6.70;90.00;;;;;;4940225;29;20035;-86
2021/04/17 03:57:31;;;;;;;7.90;5.47;;;6.70;90.00;;;;;;4957754;29;20024;-85
2021/04/17 03:59:56;;;;;;;7.82;5.18;;;6.80;90.20;;;;;;4940571;29;20038;-85
2021/04/17 04:02:22;;;;;;;8.25;5.10;;;6.80;90.00;;;;;;4957400;29;20481;-85
2021/04/17 04:04:48;;;;;;;8.25;5.20;;;6.80;90.10;;;;;;4940142;29;20023;-85
2021/04/17 04:07:13;;;;;;;9.77;5.30;;;6.90;90.40;;;;;;4939611;29;20034;-85
2021/04/17 04:09:39;;;;;;;10.00;5.53;;;6.90;90.20;;;;;;4942262;29;20023;-86
2021/04/17 04:12:06;;;;;;;7.43;4.70;;;6.90;90.30;;;;;;4957129;29;20035;-86
2021/04/17 04:14:32;;;;;;;7.55;5.60;;;7.00;90.20;;;;;;4939815;29;20086;-85
2021/04/17 04:16:57;;;;;;;6.60;4.53;;;7.00;90.10;;;;;;4955810;28;20099;-86
2021/04/17 04:19:23;;;;;;;9.15;6.10;;;7.00;90.00;;;;;;4955816;29;20042;-86
2021/04/17 04:21:49;;;;;;;8.63;5.72;;;7.10;90.00;;;;;;4955552;29;20118;-86
2021/04/17 04:24:15;;;;;;;7.95;5.05;;;7.10;90.00;;;;;;4956184;29;20035;-86
2021/04/17 04:26:40;;;;;;;7.40;5.07;;;7.10;90.00;;;;;;4955303;29;20493;-86
2021/04/17 04:29:06;;;;;;;7.65;5.18;;;7.10;90.00;;;;;;4939571;29;20474;-85
2021/04/17 04:31:32;;;;;;;8.05;5.03;;;7.00;90.00;;;;;;4964614;28;20121;-86
2021/04/17 04:33:58;;;;;;;7.78;4.90;;;7.00;90.10;;;;;;4958610;28;20529;-85
2021/04/17 04:36:23;;;;;;;8.35;5.47;;;7.10;90.20;;;;;;4975914;28;20038;-85
2021/04/17 04:38:49;;;;;;;9.60;5.13;;;7.10;90.20;;;;;;4958653;28;20050;-86
2021/04/17 04:41:15;;;;;;;9.98;5.00;;;7.10;90.20;;;;;;4958815;28;20038;-87
2021/04/17 04:43:40;;;;;;;8.60;5.40;;;7.10;90.20;;;;;;4959341;28;20031;-86
2021/04/17 04:46:06;;;;;;;9.05;5.68;;;7.10;90.30;;;;;;4976894;28;20093;-85
2021/04/17 04:48:32;;;;;;;7.43;5.00;;;7.20;90.30;;;;;;4958501;28;20027;-86
2021/04/17 04:50:58;;;;;;;8.00;6.00;;;7.20;90.30;;;;;;4976425;28;20034;-86
2021/04/17 04:53:24;;;;;;;10.00;5.95;;;7.20;90.30;;;;;;4977640;28;20081;-87
2021/04/17 04:55:49;;;;;;;8.07;6.18;;;7.20;90.40;;;;;;4980622;28;20035;-88
2021/04/17 04:58:15;;;;;;;8.75;5.45;;;7.20;90.40;;;;;;4961183;28;20023;-86
2021/04/17 05:00:41;;;;;;;8.60;5.75;;;7.20;90.50;;;;;;4976190;28;20355;-86
2021/04/17 05:03:06;;;;;;;7.78;5.38;;;7.20;90.50;;;;;;4960778;28;20027;-85
2021/04/17 05:05:32;;;;;;;11.10;6.90;;;7.20;90.60;;;;;;4976934;28;20386;-85
2021/04/17 05:07:58;;;;;;;9.27;6.45;;;7.30;90.60;;;;;;4976389;28;20034;-85
2021/04/17 05:10:24;;;;;;;11.77;6.97;;;7.30;90.60;;;;;;4958352;28;20058;-85
2021/04/17 05:12:49;;;;;;;10.38;6.85;;;7.30;90.60;;;;;;4975464;28;20101;-85
2021/04/17 05:15:15;;;;;;;11.63;6.43;;;7.30;90.70;;;;;;4975647;28;20037;-86
2021/04/17 05:17:41;;;;;;;11.57;7.95;;;7.30;90.70;;;;;;4957973;28;20022;-85
2021/04/17 05:20:07;;;;;;;14.30;8.95;;;7.30;90.90;;;;;;4958023;28;20031;-85
2021/04/17 05:22:33;;;;;;;14.75;9.75;;;7.30;90.80;;;;;;4957709;28;20034;-86
2021/04/17 05:24:59;;;;;;;12.63;9.13;;;7.30;90.90;;;;;;4957673;28;20161;-86
2021/04/17 05:27:24;;;;;;;15.50;11.27;;;7.30;91.00;;;;;;4957769;28;20126;-85
2021/04/17 05:29:50;;;;;;;12.90;9.63;;;7.30;91.20;;;;;;4975140;28;20023;-86
2021/04/17 05:32:17;;;;;;;15.55;8.75;;;7.30;91.30;;;;;;4975044;28;20097;-85
2021/04/17 05:34:42;;;;;;;15.65;11.40;;;7.30;91.30;;;;;;4957697;28;20035;-86
2021/04/17 05:37:08;;;;;;;17.17;11.95;;;7.30;91.50;;;;;;4975155;28;20029;-86
2021/04/17 05:39:34;;;;;;;14.10;10.50;;;7.30;91.50;;;;;;4958242;28;20493;-86
2021/04/17 05:41:59;;;;;;;13.30;9.32;;;7.30;91.50;;;;;;4957421;28;20034;-85
2021/04/17 05:44:25;;;;;;;12.40;8.80;;;7.40;91.60;;;;;;4957615;28;20054;-85
2021/04/17 05:46:51;;;;;;;16.60;10.32;;;7.40;91.50;;;;;;4954345;29;20027;-86
2021/04/17 05:49:17;;;;;;;14.73;9.52;;;7.50;91.70;;;;;;4938460;29;20114;-86
2021/04/17 05:51:43;;;;;;;16.38;11.85;;;7.50;91.50;;;;;;4956046;28;20126;-86
2021/04/17 05:54:10;;;;;;;15.80;11.48;;;7.60;91.70;;;;;;4974495;28;20030;-85
2021/04/17 05:56:36;;;;;;;17.58;10.27;;;7.60;91.70;;;;;;4957036;28;20066;-85
2021/04/17 05:59:02;;;;;;;14.70;10.57;;;7.70;91.60;;;;;;4957224;28;20033;-86
2021/04/17 06:01:28;;;;;;;12.95;8.93;;;7.70;91.60;;;;;;4957803;28;20031;-85
2021/04/17 06:03:53;;;;;;;11.18;9.02;;;7.80;91.60;;;;;;4957793;28;20027;-86
2021/04/17 06:06:19;;;;;;;12.55;8.70;;;7.90;91.50;;;;;;4957674;28;20026;-86
2021/04/17 06:08:45;;;;;;;11.30;8.63;;;8.00;91.50;;;;;;4953515;29;20027;-85
2021/04/17 06:11:12;;;;;;;16.80;10.95;;;8.10;91.40;;;;;;4968481;28;20497;-86
2021/04/17 06:13:38;;;;;;;13.63;10.13;;;8.20;91.20;;;;;;4960581;28;20027;-86
2021/04/17 06:16:05;;;;;;;14.80;9.80;;;8.30;91.20;;;;;;4978045;28;20037;-87
2021/04/17 06:18:32;;;;;;;12.75;9.52;;;8.30;91.20;;;;;;4960818;28;20093;-86
2021/04/17 06:20:58;;;;;;;14.75;9.70;;;8.50;91.30;;;;;;4977990;28;20070;-86
2021/04/17 06:23:24;;;;;;;9.57;7.35;;;8.60;91.30;;;;;;4978061;28;20030;-86
2021/04/17 06:25:49;;;;;;;13.30;9.43;;;8.70;90.60;;;;;;4960681;28;20069;-87
2021/04/17 06:28:17;;;;;;;10.45;8.35;;;8.80;90.30;;;;;;4961507;28;20031;-86
2021/04/17 06:30:43;;;;;;;11.77;6.82;;;8.90;90.60;;;;;;4978511;28;20073;-86
2021/04/17 06:33:09;;;;;;;10.52;7.72;;;9.00;90.40;;;;;;4961585;28;20134;-86
2021/04/17 06:35:36;;;;;;;9.18;7.05;;;9.00;89.80;;;;;;4968368;28;20035;-86
2021/04/17 06:38:03;;;;;;;9.18;7.05;;;9.00;89.30;;;;;;4988836;28;20078;-85
2021/04/17 06:40:28;;;;;;;12.07;8.65;;;9.00;89.10;;;;;;4973309;28;20441;-86
2021/04/17 06:42:57;;;;;;;10.23;7.80;;;9.00;88.70;;;;;;4992094;28;20066;-86
2021/04/17 06:45:23;;;;;;;9.13;7.65;;;9.00;88.90;;;;;;4976713;28;20027;-86
2021/04/17 06:47:50;;;;;;;10.48;8.23;;;9.00;88.80;;;;;;4978768;28;20035;-85
2021/04/17 06:50:17;;;;;;;10.40;7.50;;;9.00;88.50;;;;;;4978966;28;20034;-86
2021/04/17 06:52:44;;;;;;;12.07;8.85;;;9.00;88.70;;;;;;4965144;28;20471;-86
2021/04/17 06:55:12;;;;;;;12.15;8.20;;;9.00;88.00;;;;;;4980583;28;20031;-88
2021/04/17 06:57:40;;;;;;;11.30;8.50;;;8.90;87.70;;;;;;4960315;28;20031;-86
2021/04/17 07:00:09;;;;;;;9.48;7.30;;;8.90;88.10;;;;;;4960262;28;20447;-87
2021/04/17 07:02:35;;;;;;;10.15;7.68;;;8.90;88.30;;;;;;4977291;28;20052;-87
2021/04/17 07:05:01;;;;;;;11.13;8.48;;;9.00;88.20;;;;;;4960419;28;20026;-88
2021/04/17 07:07:31;;;;;;;9.90;7.68;;;9.00;88.40;;;;;;4959639;28;20525;-86
2021/04/17 07:09:57;;;;;;;9.40;7.15;;;9.10;87.60;;;;;;4959895;28;20029;-86
2021/04/17 07:12:23;;;;;;;9.80;6.72;;;9.00;87.30;;;;;;4976805;28;20473;-86
2021/04/17 07:14:52;;;;;;;10.13;7.63;;;9.10;87.60;;;;;;4958899;28;20051;-86
2021/04/17 07:17:18;;;;;;;9.43;7.13;;;9.10;87.60;;;;;;4959558;28;20027;-87
2021/04/17 07:19:47;;;;;;;11.40;8.43;;;9.10;87.40;;;;;;4959054;28;20066;-86
2021/04/17 07:22:41;;;;;;;9.38;7.40;;;9.00;87.00;;;;;;4976053;28;20106;-86
2021/04/17 07:25:07;;;;;;;;;;;9.00;87.00;;;;;;4960188;28;20429;-85
2021/04/17 07:27:37;;;;;;;10.35;8.02;;;8.90;86.40;;;;;;4959817;28;19949;-86
2021/04/17 07:30:08;;;;;;;9.95;7.47;;;8.90;87.00;;;;;;4959823;28;20027;-86
2021/04/17 07:32:35;;;;;;;11.25;8.60;;;9.00;86.80;;;;;;4976938;28;20047;-86
2021/04/17 07:35:11;;;;;;;12.55;9.73;;;8.90;86.60;;;;;;4976930;28;20046;-86
2021/04/17 07:37:39;;;;;;;13.50;9.73;;;8.90;86.40;;;;;;4960053;28;20030;-85
2021/04/17 07:40:20;;;;;;;9.75;8.27;;;8.80;86.50;;;;;;4956208;28;20041;-86
2021/04/17 07:42:49;;;;;;;13.52;9.75;;;8.80;86.90;;;;;;4951875;28;20082;-86
2021/04/17 07:45:29;;;;;;;14.60;10.80;;;8.80;86.80;;;;;;4960002;28;20026;-85
2021/04/17 07:47:59;;;;;;;12.85;9.77;;;8.80;87.00;;;;;;4959369;28;20023;-87
2021/04/17 07:50:43;;;;;;;14.63;10.82;;;8.70;86.90;;;;;;4976051;28;20027;-86
2021/04/17 07:53:32;;;;;;;14.65;10.00;;;8.70;86.90;;;;;;4976930;28;20037;-87
2021/04/17 07:56:28;;;;;;;12.45;8.73;;;8.70;86.90;;;;;;4959924;28;20023;-86
2021/04/17 07:59:00;;;;;;;13.55;9.73;;;8.60;86.90;;;;;;4972520;28;20035;-86
2021/04/17 08:01:27;;;;;;;14.63;10.65;;;8.60;87.20;;;;;;4975928;28;20474;-86
2021/04/17 08:03:55;;;;;;;12.27;9.18;;;8.50;87.20;;;;;;4958885;28;20105;-86
2021/04/17 08:06:22;;;;;;;13.93;9.50;;;8.50;87.20;;;;;;4959364;28;20026;-87
2021/04/17 08:08:50;;;;;;;13.82;10.07;;;8.50;87.10;;;;;;4958661;28;20101;-88
2021/04/17 08:11:20;;;;;;;11.98;8.85;;;8.50;87.20;;;;;;4959383;28;20040;-86
2021/04/17 08:13:47;;;;;;;13.73;9.18;;;8.50;87.50;;;;;;4959212;28;20035;-87
2021/04/17 08:16:13;;;;;;;14.60;10.57;;;8.50;87.40;;;;;;4959250;28;20117;-85
2021/04/17 08:18:39;;;;;;;12.25;9.05;;;8.50;87.40;;;;;;4975951;28;20415;-86
2021/04/17 08:21:10;;;;;;;16.13;11.13;;;8.50;87.00;;;;;;4958994;28;20061;-86
2021/04/17 08:23:41;;;;;;;15.40;11.77;;;8.50;87.10;;;;;;4956597;28;20034;-86
2021/04/17 08:26:07;;;;;;;17.55;13.10;;;8.60;86.90;;;;;;4976149;28;20094;-87
2021/04/17 08:28:40;;;;;;;16.58;11.43;;;8.50;86.80;;;;;;4989371;28;20023;-86
2021/04/17 08:31:33;;;;;;;17.20;11.50;;;8.50;86.80;;;;;;4973028;28;20038;-86
2021/04/17 08:34:05;;;;;;;18.45;12.98;;;8.40;86.60;;;;;;4977787;28;20041;-88
2021/04/17 08:36:32;;;;;;;18.00;12.75;;;8.40;86.90;;;;;;4973597;28;20037;-88
2021/04/17 08:38:58;;;;;;;16.60;11.95;;;8.50;87.10;;;;;;4971144;28;20050;-87
2021/04/17 08:41:57;;;;;;;16.00;11.77;;;8.50;87.10;;;;;;4982628;28;20430;-87
2021/04/17 08:44:24;;;;;;;16.33;11.50;;;8.60;87.20;;;;;;4926704;28;20114;-86
2021/04/17 08:46:50;;;;;;;15.95;12.07;;;8.60;87.00;;;;;;4959572;28;20105;-87
2021/04/17 08:49:25;;;;;;;16.75;11.18;;;8.70;86.30;;;;;;4977856;28;20445;-86
2021/04/17 08:51:51;;;;;;;15.57;11.75;;;8.70;86.40;;;;;;4958919;28;20378;-86
2021/04/17 08:54:21;;;;;;;19.23;12.55;;;8.80;86.20;;;;;;4976027;28;20027;-87
2021/04/17 08:56:49;;;;;;;15.43;10.73;;;8.70;85.60;;;;;;4958459;28;20031;-87
2021/04/17 08:59:35;;;;;;;14.70;10.48;;;8.70;86.10;;;;;;4958557;28;20123;-86
2021/04/17 09:02:13;;;;;;;13.80;10.30;;;8.80;86.10;;;;;;4958347;28;20058;-87
2021/04/17 09:05:05;;;;;;;14.00;11.18;;;8.80;85.30;;;;;;4958831;28;20351;-86
2021/04/17 09:07:33;;;;;;;16.20;11.13;;;8.80;85.40;;;;;;4958064;28;20023;-86
2021/04/17 09:10:24;;;;;;;13.60;10.00;;;8.80;85.40;;;;;;4958083;28;20027;-86
2021/04/17 09:13:13;;;;;;;14.95;10.85;;;8.90;85.40;;;;;;4956422;29;20043;-86
2021/04/17 09:15:57;;;;;;;14.23;10.25;;;9.00;84.30;;;;;;4938438;28;20066;-87
2021/04/17 09:18:32;;;;;;;16.50;11.32;;;9.00;84.90;;;;;;4939450;28;20109;-88
2021/04/17 09:21:00;;;;;;;15.07;10.32;;;9.00;84.20;;;;;;4957713;28;20497;-89
2021/04/17 09:23:41;;;;;;;17.77;12.00;;;9.00;84.40;;;;;;4956989;28;20035;-89
2021/04/17 09:26:08;;;;;;;14.88;10.13;;;9.00;83.60;;;;;;4957670;28;20050;-89
2021/04/17 09:28:39;;;;;;;14.20;9.65;;;9.00;84.00;;;;;;4957858;28;20436;-89
2021/04/17 09:31:10;;;;;;;14.07;10.75;;;9.00;84.20;;;;;;4974952;28;20050;-88
2021/04/17 09:33:36;;;;;;;14.90;11.93;;;9.00;83.70;;;;;;4957680;28;20449;-88
2021/04/17 09:36:02;;;;;;;16.15;10.95;;;9.00;83.60;;;;;;4956852;28;20030;-89
2021/04/17 09:38:31;;;;;;;14.30;10.88;;;9.00;83.80;;;;;;4957270;28;20026;-88
2021/04/17 09:40:58;;;;;;;14.63;10.63;;;8.90;83.70;;;;;;4957754;28;20072;-88
2021/04/17 09:43:35;;;;;;;14.63;10.32;;;8.90;83.90;;;;;;4958719;28;20031;-86
2021/04/17 09:46:17;;;;;;;14.77;10.93;;;8.90;84.00;;;;;;4974336;28;20035;-87
2021/04/17 09:48:45;;;;;;;17.33;10.95;;;8.90;84.00;;;;;;4973386;28;20375;-88
2021/04/17 09:51:25;;;;;;;12.48;9.00;;;8.90;84.40;;;;;;4974300;28;20042;-88
2021/04/17 09:53:52;;;;;;;14.25;10.23;;;9.00;84.60;;;;;;4957492;28;20023;-87
2021/04/17 09:56:33;;;;;;;13.70;10.50;;;9.00;84.50;;;;;;4957385;28;20041;-87
2021/04/17 09:59:06;;;;;;;13.85;10.65;;;9.10;84.00;;;;;;4974698;28;20022;-88
2021/04/17 10:01:32;;;;;;;15.35;10.95;;;9.10;83.80;;;;;;4958168;28;20038;-88
2021/04/17 10:04:01;;;;;;;13.02;10.27;;;9.10;83.40;;;;;;4975198;28;20027;-87
2021/04/17 10:07:13;;;;;;;13.02;10.15;;;9.20;83.50;;;;;;4953296;29;20031;-87
2021/04/17 10:09:39;;;;;;;14.07;10.32;;;9.20;82.50;;;;;;4956743;29;20028;-87
2021/04/17 10:12:11;;;;;;;13.68;10.18;;;9.20;83.70;;;;;;4973159;28;20046;-88
2021/04/17 10:14:37;;;;;;;13.75;10.05;;;9.30;83.40;;;;;;4958070;28;20113;-88
2021/04/17 10:17:05;;;;;;;13.15;9.45;;;9.40;82.90;;;;;;4974170;28;20186;-87
2021/04/17 10:19:31;;;;;;;13.88;10.25;;;9.40;82.70;;;;;;4982728;28;20041;-89
2021/04/17 10:22:02;;;;;;;12.27;9.07;;;9.40;82.10;;;;;;4985449;28;20046;-87
2021/04/17 10:24:32;;;;;;;13.55;10.30;;;9.40;82.20;;;;;;4983542;28;20011;-87
2021/04/17 10:30:21;;;;;;;13.65;8.98;;;9.40;81.60;;;;;;4994154;28;20062;-87
2021/04/17 10:36:32;;;;;;;13.90;10.32;;;9.40;81.00;;;;;;4975774;28;20073;-88
2021/04/17 10:42:20;;;;;;;14.05;10.10;;;9.30;81.30;;;;;;4974964;28;20053;-88
2021/04/17 10:44:55;;;;;;;13.25;9.50;;;9.20;81.20;;;;;;4969498;28;20047;-88
2021/04/17 10:47:22;;;;;;;11.73;8.35;;;9.20;81.50;;;;;;4967071;28;20505;-88
2021/04/17 10:49:48;;;;;;;12.30;9.35;;;9.30;82.10;;;;;;4974182;28;20073;-88
2021/04/17 10:56:00;;;;;;;10.65;8.35;;;9.30;81.80;;;;;;4974635;28;20038;-87
2021/04/17 10:58:33;;;;;;;12.38;7.88;;;9.40;81.70;;;;;;4969474;28;20031;-88
2021/04/17 11:14:04;;;;;;;10.27;8.38;;;9.70;80.90;;;;;;4977664;28;20033;-88
2021/04/17 11:19:51;;;;;;;11.07;7.15;;;9.70;80.00;;;;;;4977838;28;20062;-88
2021/04/17 11:22:22;;;;;;;8.07;6.47;;;9.80;80.70;;;;;;4977029;28;20023;-86
2021/04/17 11:25:05;;;;;;;9.32;7.65;;;9.90;80.50;;;;;;4973293;28;20386;-86
2021/04/17 11:27:32;;;;;;;8.32;6.97;;;10.00;78.70;;;;;;4970570;28;20086;-88
2021/04/17 11:29:58;;;;;;;10.95;8.30;;;10.20;80.30;;;;;;4977705;28;20031;-87
2021/04/17 11:32:27;;;;;;;10.10;7.60;;;10.40;80.30;;;;;;4978900;28;20038;-87
2021/04/17 11:34:53;;;;;;;8.18;6.75;;;10.60;79.30;;;;;;4979043;28;20027;-87
2021/04/17 11:37:20;;;;;;;8.50;6.18;;;10.80;79.40;;;;;;4962996;28;20488;-87
2021/04/17 11:39:47;;;;;;;10.88;8.00;;;11.00;79.50;;;;;;4996396;28;20041;-86
2021/04/17 11:42:16;;;;;;;9.45;7.15;;;11.30;77.20;;;;;;4978807;28;20030;-88
2021/04/17 11:44:44;;;;;;;10.05;7.70;;;11.50;77.00;;;;;;4979347;28;20351;-88
2021/04/17 11:47:09;;;;;;;8.18;6.90;;;11.60;75.40;;;;;;4996120;28;20046;-87
2021/04/17 11:49:35;;;;;;;9.38;7.60;;;11.70;75.90;;;;;;4978312;28;20089;-87
2021/04/17 11:52:01;;;;;;;8.15;6.65;;;11.70;74.50;;;;;;4979327;28;20041;-87
2021/04/17 11:54:27;;;;;;;7.72;6.90;;;11.70;72.60;;;;;;4979605;28;20450;-87
2021/04/17 11:56:52;;;;;;;8.38;7.20;;;11.70;72.30;;;;;;4963150;28;20482;-88
2021/04/17 11:59:18;;;;;;;8.63;7.40;;;11.70;72.40;;;;;;4978478;28;20114;-87
2021/04/17 12:01:45;;;;;;;7.45;6.32;;;11.60;71.30;;;;;;4981347;28;20046;-87
2021/04/17 12:04:12;;;;;;;9.65;7.07;;;11.70;72.60;;;;;;5003372;28;20030;-87
2021/04/17 12:06:40;;;;;;;8.13;6.68;;;11.80;72.20;;;;;;4985130;28;20550;-88
2021/04/17 12:09:06;;;;;;;7.50;6.70;;;11.90;71.60;;;;;;4984346;28;20117;-87
2021/04/17 12:11:33;;;;;;;7.82;6.60;;;11.90;70.20;;;;;;4997034;28;20078;-87
2021/04/17 12:14:00;;;;;;;9.18;7.18;;;11.90;70.20;;;;;;5016168;28;20036;-87
2021/04/17 12:16:27;;;;;;;8.50;7.63;;;11.80;69.80;;;;;;4997802;28;20045;-87
2021/04/17 12:18:52;;;;;;;8.02;7.22;;;11.60;69.00;;;;;;4987709;28;20037;-87
2021/04/17 12:21:18;;;;;;;8.95;8.05;;;11.40;69.30;;;;;;4995788;28;20094;-87
2021/04/17 12:23:47;;;;;;;7.70;6.65;;;11.20;69.50;;;;;;4974514;28;20085;-87
2021/04/17 12:26:13;;;;;;;8.38;7.45;;;11.00;69.50;;;;;;4976098;28;20051;-86
2021/04/17 12:28:40;;;;;;;7.85;6.80;;;10.90;69.80;;;;;;4976308;28;20029;-86
2021/04/17 12:31:06;;;;;;;7.57;6.53;;;10.70;70.10;;;;;;4958980;28;20050;-87
2021/04/17 12:33:32;;;;;;;7.70;6.82;;;10.70;70.80;;;;;;4957918;28;20486;-87
2021/04/17 12:35:57;;;;;;;7.75;6.38;;;10.70;71.30;;;;;;4975485;28;20103;-86
2021/04/17 12:38:23;;;;;;;7.25;6.55;;;10.70;71.30;;;;;;4958270;28;20033;-86
2021/04/17 12:40:54;;;;;;;7.25;6.13;;;10.80;71.60;;;;;;4958298;28;20026;-87
2021/04/17 12:43:20;;;;;;;7.47;6.63;;;10.90;71.60;;;;;;4958521;28;20057;-87
2021/04/17 12:45:46;;;;;;;8.18;6.88;;;11.10;71.20;;;;;;4958055;28;20027;-87
2021/04/17 12:48:14;;;;;;;7.32;6.38;;;11.10;70.20;;;;;;4975356;28;20161;-87
2021/04/17 12:50:39;;;;;;;8.13;5.55;;;11.10;69.30;;;;;;4958357;28;20126;-87
2021/04/17 12:53:08;;;;;;;6.88;6.05;;;11.10;70.00;;;;;;4957554;28;20114;-86
2021/04/17 12:55:33;;;;;;;7.50;6.38;;;11.20;71.00;;;;;;4958061;28;20029;-87
2021/04/17 12:57:59;;;;;;;6.70;6.00;;;11.40;70.30;;;;;;4957226;28;20026;-87
2021/04/17 13:00:25;;;;;;;5.95;5.25;;;11.60;69.40;;;;;;4957075;28;20038;-86
2021/04/17 13:02:51;;;;;;;6.13;5.50;;;11.70;70.00;;;;;;4954695;29;20037;-86
2021/04/17 13:05:17;;;;;;;6.88;5.70;;;12.10;71.20;;;;;;4938676;29;20121;-87
2021/04/17 13:07:43;;;;;;;6.20;5.60;;;12.70;68.50;;;;;;4972121;28;20070;-88
2021/04/17 13:10:09;;;;;;;7.00;5.43;;;13.20;67.60;;;;;;4957765;28;20063;-87
2021/04/17 13:12:35;;;;;;;6.80;5.75;;;13.40;65.80;;;;;;4956886;28;20042;-88
2021/04/17 13:15:00;;;;;;;6.45;5.82;;;13.50;64.40;;;;;;4974287;28;20450;-86
2021/04/17 13:17:26;;;;;;;6.43;5.82;;;13.70;64.40;;;;;;4957521;28;20031;-88
2021/04/17 13:19:52;;;;;;;6.07;5.47;;;14.00;63.20;;;;;;4975124;28;20389;-87
2021/04/17 13:22:20;;;;;;;6.18;5.57;;;14.60;64.40;;;;;;4973950;28;20470;-88
2021/04/17 13:24:51;;;;;;;4.90;4.40;;;15.10;62.00;;;;;;4975058;28;20070;-88
2021/04/17 13:27:18;;;;;;;5.18;4.68;;;15.60;60.10;;;;;;4975267;28;20053;-85